createdAt,value
2023-03-10T00:08:31.839Z,963.26
2023-03-10T00:23:35.722Z,963.05
2023-03-10T00:38:39.252Z,962.98
2023-03-10T00:53:41.096Z,962.63
2023-03-10T01:08:42.966Z,962.24
2023-03-10T01:23:44.816Z,961.8
2023-03-10T01:38:46.650Z,961.43
2023-03-10T01:53:48.435Z,961.6
2023-03-10T02:08:50.279Z,961.53
2023-03-10T02:24:01.091Z,961.39
2023-03-10T02:39:03.632Z,961.2
2023-03-10T02:54:05.634Z,960.95
2023-03-10T03:09:07.590Z,960.69
2023-03-10T03:24:09.575Z,960.62
2023-03-10T03:39:11.667Z,960.61
2023-03-10T03:54:13.619Z,960.6
2023-03-10T04:09:15.491Z,960.36
2023-03-10T04:24:17.511Z,960.05
2023-03-10T04:39:19.409Z,959.84
2023-03-10T04:54:21.334Z,959.61
2023-03-10T05:09:23.262Z,959.43
2023-03-10T05:24:25.199Z,959.2
2023-03-10T05:39:27.087Z,958.85
2023-03-10T05:54:29.010Z,958.58
2023-03-10T06:09:31.016Z,958.29
2023-03-10T06:24:32.940Z,958.09
2023-03-10T06:39:34.844Z,957.85
2023-03-10T06:54:36.754Z,957.42
2023-03-10T07:09:38.658Z,957.16
2023-03-10T07:24:40.606Z,956.79
2023-03-10T07:39:42.583Z,956.44
2023-03-10T07:54:44.501Z,956.02
2023-03-10T08:09:46.498Z,955.74
2023-03-10T08:24:48.398Z,955.26
2023-03-10T08:39:50.329Z,954.79
2023-03-10T08:54:52.300Z,954.29
2023-03-10T09:09:54.206Z,954.02
2023-03-10T09:24:57.634Z,953.63
2023-03-10T09:40:00.762Z,953.31
2023-03-10T09:55:02.627Z,952.85
2023-03-10T10:10:04.492Z,952.34
2023-03-10T10:25:08.019Z,951.9
2023-03-10T10:40:10.173Z,951.48
2023-03-10T10:55:12.075Z,950.95
2023-03-10T11:10:14.037Z,950.58
2023-03-10T11:25:15.995Z,950.49
2023-03-10T11:40:17.969Z,949.98
2023-03-10T11:55:19.888Z,949.94
2023-03-10T12:10:22.022Z,949.79
2023-03-10T12:25:23.971Z,949.79
2023-03-10T12:40:25.877Z,949.54
2023-03-10T12:55:27.781Z,949.07
2023-03-10T13:10:29.893Z,948.65
2023-03-10T13:25:31.997Z,948.37
2023-03-10T13:40:33.933Z,948.01
2023-03-10T13:55:35.882Z,947.63
2023-03-10T14:10:37.806Z,947.44
2023-03-10T14:25:39.709Z,947.31
2023-03-10T14:40:41.635Z,947.04
2023-03-10T14:55:43.586Z,946.83
2023-03-10T15:10:45.543Z,946.66
2023-03-10T15:25:47.533Z,946.48
2023-03-10T15:40:49.479Z,946.49
2023-03-10T15:55:51.345Z,946.49
2023-03-10T16:10:53.403Z,946.54
2023-03-10T16:25:55.379Z,946.57
2023-03-10T16:40:57.280Z,946.55
2023-03-10T16:55:59.227Z,946.42
2023-03-10T17:11:01.166Z,946.37
2023-03-10T17:26:03.100Z,946.32
2023-03-10T17:41:05.094Z,946.17
2023-03-10T17:56:07.070Z,946.08
2023-03-10T18:11:08.979Z,946.09
2023-03-10T18:26:10.946Z,946.06
2023-03-10T18:41:12.864Z,945.97
2023-03-10T18:56:14.844Z,945.93
2023-03-10T19:11:16.770Z,945.85
2023-03-10T19:26:18.749Z,945.96
2023-03-10T19:41:20.653Z,945.79
2023-03-10T19:56:22.769Z,945.82
2023-03-10T20:11:24.738Z,945.72
2023-03-10T20:26:26.615Z,945.67
2023-03-10T20:41:28.510Z,945.69
2023-03-10T20:56:31.551Z,945.61
2023-03-10T21:11:33.621Z,945.61
2023-03-10T21:26:35.578Z,945.69
2023-03-10T21:41:37.789Z,945.74
2023-03-10T21:56:39.701Z,945.97
2023-03-10T22:11:41.757Z,946.17
2023-03-10T22:26:43.701Z,946.51
2023-03-10T22:41:45.682Z,946.77
2023-03-10T22:56:47.650Z,946.98
2023-03-10T23:11:49.604Z,947.21
2023-03-10T23:26:51.524Z,947.51
2023-03-10T23:41:53.430Z,947.86
2023-03-10T23:56:55.361Z,948.12
